Etusivu
METAR-TAF:

METAR-TAF

Lentoasemat :

Harare, Zimbabwe

Leveyspiiri: 17-55S, Pituuspiiri: 031-08E, korkeus merenpinnasta: 1479 m

Tämänhetkinen sää

Tämä raportti tehtiin 1 tunti ja 13 minuuttia sitten, kello 19.00 UTC
tyyntä
Lämpötila 12°C
Kosteus 76%
Ilmanpaine 1024 hPa
Näkyvyys 10 km tai enemmän
ei pilviä alle 1500 m:ssä eikä cumulonimbus-pilviä

METAR: FVHA 251900Z 00000KT CAVOK 12/08 Q1024 NOSIG

Aika: 22:13 (20:13 UTC)

Sääennuste

Tämä raportti tehtiin 4 tuntia ja 13 minuuttia sitten, kello 16.00 UTC
Ennuste voimassa 25. päivästä klo 18 UTC - 26. päivään klo 24 UTC
Tuuli 7 kn lännestä/lounaasta
Näkyvyys 10 km tai enemmän
ei pilviä alle 1500 m:ssä eikä cumulonimbus-pilviä

TAF: FVHA 251600Z 2518/2624 25007KT CAVOK

Säähavainnot ja -ennusteet yli 4000 lentoasemalta (METAR- ja TAF-raportit).

Käytössä olevat sääasemat on merkitty karttaan keltaisilla ja punaisilla pisteillä.

Aseta hiiri pisteen päälle nähdäksesi sääaseman nimen.

Klikkaa sitten nähdäksesi säähavainnot ja -ennusteet.

Kartan vaihtaminen: klikkaa mustalla rastilla varustettuja vihreitä pisteitä, niin voit zoomata sisään; viivalla varustettua vihreää pistettä, niin voit zoomata ulos tai vihreitä nuolia, niin pääset viereisille kartoille.


METAR-TAF: